FNBG/BUG METAR and TAF weather

Enter ICAO airport designator
Station Type Date Time Source
FNBG METAR 2019/05/23 08:00 UTC NOAA

FNBG 230800Z 00000KT 9999 FEW015 26/21 Q1014


Station Type Date Time Source
FNBG Decoded METAR 2019/05/23 08:00 UTC NOAA

Monbaca Benguela , Angola (FNBG) 12-35S 013-25E 4M
May 23, 2019 - 04:00 AM EDT / 2019.05.23 0800 UTC
Wind: Calm:0
Visibility: greater than 7 mile(s):0
Sky conditions: mostly clear
Temperature: 78 F (26 C)
Dew Point: 69 F (21 C)
Relative Humidity: 73%
Pressure (altimeter): 29.94 in. Hg (1014 hPa)
ob: FNBG 230800Z 00000KT 9999 FEW015 26/21 Q1014
cycle: 8

Station Type Date Time Source
FNBG TAF 2019/05/23 12:45 UTC NOAA

TAF FNBG 231045Z 2312/2324 29008KT 9999 FEW015
TEMPO 2312/2323 CAVOK
BECMG 2323/2320 VRB03KT 9000 SCT012

Example: see airport list